Sutton, ND

09:06 AM CDT die 31o October, anno 2014 (GMT -0500)
Devils Lake Municipal | Change Station
CLOSE
Current Station
Airport
Location: Devils Lake,
Elevation: 1453 ft
Nearby Weather Stations

Elev 1453 ft 48.11 °N, 98.91 °W | Updated 11 minutes ago

Serena
Serena
23 °F
Feels Like 13 °F
N
9
Ventus Variabilis Ventus from Magis Auster quam Eurus

Hodie
High -- | Low -- °F
--% Chance of Precip.
Yesterday
High -- | Low -- °F
Precip. -- in
8:15 AM 6:18 PM
First Quarter, 55% visible
Pressio 30.52 in
Visibilitas 10.0 milia passuum
Clouds Serena
Frigus Venti 13 °F
Frigus in quo Ros apparet 16 °F
Umor 74%
Rainfall 0.00 in
Snow Depth Not available.
UV 0 out of 12
Pollen .10 out of 12
Air Quality Not available.
Flu Activity Not available.
METAR KDVL 311355Z AUTO 16008KT 10SM CLR M05/M09 A3052 RMK AO1

More Conditions Fewer Conditions

Pressio 30.52 in
Visibilitas 10.0 milia passuum
Clouds Serena
Frigus Venti 13 °F
Frigus in quo Ros apparet 16 °F
Umor 74%
Rainfall 0.00 in
Snow Depth Not available.
UV 0 out of 12
Pollen .10 out of 12
Air Quality Not available.
Flu Activity Not available.
METAR KDVL 311355Z AUTO 16008KT 10SM CLR M05/M09 A3052 RMK AO1

More Conditions Fewer Conditions

10-Day Weather Forecast

Almanac

Astronomy

Oct. 31, 2014 Rise Set
Actual Time
Civil Twilight
Nautical Twilight
Astronomical Twilight
Moon
Length Of Visible Light
Length of Day
Tomorrow will be .
, % of the Moon is Illuminated

Today's Extremes

State Highs State Lows

Community

WunderPhotos

Upload Photos

1,766,613 photos uploaded!

WunderBlogs® & News

Nearby

Air Quality

  Air Quality AQ Index Pollutant
Not available.

Snow Depth

Station Depth Elevation

Earthquake Activity

City Distance Mag. Time & Date
Minimum magnitude displayed is 2.5.

Coastal Water Temperatures

Locus Calor

Nearby Weather Stations